Time;durP1;ratioP1;P1;durP2;ratioP2;P2;SDS_P1;SDS_P2;PMS_P1;PMS_P2;Temp;Humidity;BMP_temperature;BMP_pressure;BME280_temperature;BME280_humidity;BME280_pressure;Samples;Min_cycle;Max_cycle;Signal;HPM_P1;HPM_P2
2022/05/19 00:00:34;;;;;;;2.53;1.77;;;13.00;99.90;;;;;;5081969;28;20119;-76
2022/05/19 00:03:02;;;;;;;2.95;1.90;;;13.10;99.90;;;;;;5077006;28;20033;-70
2022/05/19 00:05:29;;;;;;;5.18;1.95;;;13.40;99.90;;;;;;5084330;28;20016;-74
2022/05/19 00:07:56;;;;;;;3.70;1.48;;;13.60;99.90;;;;;;5078305;28;20020;-69
2022/05/19 00:10:23;;;;;;;3.65;1.85;;;13.80;99.90;;;;;;5079851;28;20020;-73
2022/05/19 00:12:50;;;;;;;2.22;1.42;;;13.90;99.90;;;;;;5079883;28;20032;-71
2022/05/19 00:15:17;;;;;;;5.05;2.78;;;14.00;99.90;;;;;;5085340;28;20039;-70
2022/05/19 00:17:44;;;;;;;5.95;2.42;;;14.10;99.90;;;;;;5087504;28;20055;-74
2022/05/19 00:20:11;;;;;;;4.80;1.80;;;14.20;99.90;;;;;;5083771;28;20043;-76
2022/05/19 00:22:38;;;;;;;4.95;2.25;;;14.40;99.90;;;;;;5082763;28;20111;-76
2022/05/19 00:25:05;;;;;;;4.30;2.35;;;14.60;99.90;;;;;;5084517;28;20035;-71
2022/05/19 00:27:32;;;;;;;4.57;2.28;;;14.30;99.90;;;;;;5068325;28;20024;-71
2022/05/19 00:30:00;;;;;;;7.80;2.75;;;14.20;99.90;;;;;;5062101;28;20032;-72
2022/05/19 00:32:27;;;;;;;6.07;4.15;;;14.10;99.90;;;;;;5082940;28;20070;-79
2022/05/19 00:34:54;;;;;;;5.43;3.10;;;14.20;99.90;;;;;;5082261;28;20024;-78
2022/05/19 00:37:24;;;;;;;5.60;1.77;;;14.30;99.90;;;;;;5088509;28;20085;-69
2022/05/19 00:39:51;;;;;;;6.28;1.77;;;14.50;99.90;;;;;;5085478;28;20020;-75
2022/05/19 00:45:05;;;;;;;7.15;2.10;;;14.60;99.90;;;;;;5086266;28;20547;-73
2022/05/19 00:47:53;;;;;;;5.43;2.42;;;14.90;99.90;;;;;;5086405;28;20027;-74
2022/05/19 00:50:26;;;;;;;7.88;1.95;;;15.10;99.90;;;;;;5086694;28;20050;-72
2022/05/19 00:53:00;;;;;;;6.05;2.15;;;15.30;99.90;;;;;;5079519;28;20465;-74
2022/05/19 00:55:37;;;;;;;9.00;1.73;;;15.40;99.90;;;;;;5080904;28;20042;-73
2022/05/19 00:58:16;;;;;;;3.70;1.33;;;15.40;99.80;;;;;;5071246;28;20016;-73
2022/05/19 01:00:45;;;;;;;5.03;1.73;;;15.70;99.90;;;;;;5085649;28;20039;-78
2022/05/19 01:03:15;;;;;;;4.65;1.33;;;15.80;98.90;;;;;;5085404;28;20020;-74
2022/05/19 01:05:50;;;;;;;3.08;1.40;;;15.90;98.70;;;;;;5081803;28;20371;-69
2022/05/19 01:08:20;;;;;;;1.58;1.10;;;16.10;99.60;;;;;;5081521;28;20461;-69
2022/05/19 01:10:49;;;;;;;6.07;1.27;;;16.40;98.70;;;;;;5082027;28;20020;-69
2022/05/19 01:13:16;;;;;;;4.00;1.48;;;16.50;98.20;;;;;;5082179;28;20025;-68
2022/05/19 01:15:51;;;;;;;3.08;1.33;;;16.50;98.50;;;;;;5082857;28;20027;-69
2022/05/19 01:18:19;;;;;;;5.75;1.20;;;16.60;98.20;;;;;;5081863;28;20029;-69
2022/05/19 01:20:47;;;;;;;3.35;1.00;;;16.90;98.80;;;;;;5086878;28;20028;-68
2022/05/19 01:23:37;;;;;;;4.22;1.13;;;17.10;97.20;;;;;;5081101;28;20116;-72
2022/05/19 01:26:13;;;;;;;3.58;1.15;;;17.20;97.50;;;;;;5079786;28;20499;-66
2022/05/19 01:28:40;;;;;;;3.30;1.10;;;17.20;97.00;;;;;;5086696;28;20498;-68
2022/05/19 01:31:24;;;;;;;3.47;0.90;;;17.30;97.40;;;;;;5086215;28;20109;-67
2022/05/19 01:33:51;;;;;;;2.60;1.13;;;17.20;97.40;;;;;;5078390;28;20536;-70
2022/05/19 01:36:18;;;;;;;2.50;0.80;;;17.20;96.70;;;;;;5085172;28;20046;-69
2022/05/19 01:38:45;;;;;;;4.97;0.90;;;17.10;97.50;;;;;;5089620;28;20047;-70
2022/05/19 01:41:21;;;;;;;1.42;1.00;;;17.10;97.10;;;;;;5085269;28;20017;-69
2022/05/19 01:44:06;;;;;;;5.38;1.25;;;17.30;97.50;;;;;;5084500;28;20091;-71
2022/05/19 01:46:37;;;;;;;2.78;0.80;;;17.30;97.40;;;;;;5085491;28;20043;-74
2022/05/19 01:49:14;;;;;;;1.95;0.68;;;17.70;95.90;;;;;;5087742;28;20019;-69
2022/05/19 01:51:54;;;;;;;2.38;0.60;;;17.90;95.90;;;;;;5090736;28;20050;-69
2022/05/19 01:54:39;;;;;;;1.17;0.90;;;18.00;95.90;;;;;;5082381;28;20535;-72
2022/05/19 01:57:22;;;;;;;5.07;0.93;;;18.20;96.10;;;;;;5082710;28;20051;-69
2022/05/19 01:59:59;;;;;;;2.15;0.63;;;18.10;93.60;;;;;;5088535;28;20419;-69
2022/05/19 02:02:26;;;;;;;2.92;0.90;;;17.90;95.10;;;;;;5082966;28;20456;-74
2022/05/19 02:05:40;;;;;;;6.03;0.85;;;17.60;93.70;;;;;;5086697;28;20021;-70
2022/05/19 02:08:15;;;;;;;4.07;0.77;;;17.50;94.30;;;;;;5006814;28;20022;-69
2022/05/19 02:10:49;;;;;;;3.50;0.98;;;17.90;93.80;;;;;;5007931;28;20076;-68
2022/05/19 02:13:17;;;;;;;2.53;0.70;;;18.20;92.80;;;;;;5004764;28;20472;-72
2022/05/19 02:15:46;;;;;;;6.28;1.30;;;18.30;92.80;;;;;;5008096;28;20435;-70
2022/05/19 02:18:15;;;;;;;5.60;0.98;;;18.20;93.30;;;;;;5007483;28;20040;-68
2022/05/19 02:20:45;;;;;;;2.20;0.60;;;18.10;94.30;;;;;;5005596;28;20205;-69
2022/05/19 02:23:14;;;;;;;6.97;0.70;;;18.00;92.10;;;;;;5007137;28;20085;-68
2022/05/19 02:25:45;;;;;;;1.75;0.68;;;18.10;91.10;;;;;;5007918;28;20042;-69
2022/05/19 02:28:32;;;;;;;1.95;0.52;;;18.40;89.70;;;;;;5007543;28;20028;-69
2022/05/19 02:31:00;;;;;;;2.65;0.82;;;18.60;90.20;;;;;;5008858;28;20030;-69
2022/05/19 02:33:38;;;;;;;2.97;0.77;;;18.90;90.20;;;;;;4696397;28;10001358;-67
2022/05/19 02:36:05;;;;;;;1.65;0.70;;;18.90;86.60;;;;;;5001001;28;20309;-68
2022/05/19 02:38:33;;;;;;;0.73;0.50;;;19.10;87.50;;;;;;5032959;28;20046;-71
2022/05/19 02:41:00;;;;;;;4.55;0.70;;;19.30;84.70;;;;;;5074056;28;20051;-69
2022/05/19 02:43:27;;;;;;;4.88;0.50;;;19.30;83.50;;;;;;5081332;28;20024;-65
2022/05/19 02:45:54;;;;;;;2.80;0.60;;;19.40;83.70;;;;;;5083532;28;20509;-67
2022/05/19 02:48:21;;;;;;;1.73;0.80;;;19.70;84.40;;;;;;5085096;28;20027;-67
2022/05/19 02:50:50;;;;;;;2.55;0.63;;;19.80;83.50;;;;;;5075826;28;20269;-76
2022/05/19 02:53:19;;;;;;;2.35;0.50;;;20.00;83.60;;;;;;5081441;28;20370;-69
2022/05/19 02:55:46;;;;;;;1.45;0.45;;;20.20;78.00;;;;;;5083600;28;20103;-67
2022/05/19 02:58:14;;;;;;;3.13;0.60;;;20.20;78.80;;;;;;5080728;28;20023;-67
2022/05/19 03:00:44;;;;;;;2.13;0.63;;;20.30;77.20;;;;;;5076248;28;20028;-67
2022/05/19 03:03:12;;;;;;;1.60;0.35;;;20.10;77.70;;;;;;5072151;28;20024;-72
2022/05/19 03:05:39;;;;;;;2.60;0.77;;;20.20;75.80;;;;;;5078397;28;20061;-66
2022/05/19 03:08:07;;;;;;;2.85;0.40;;;20.20;75.10;;;;;;5077788;28;20125;-64
2022/05/19 03:10:37;;;;;;;1.20;0.38;;;20.20;73.30;;;;;;5078363;28;20020;-64
2022/05/19 03:13:05;;;;;;;1.27;0.40;;;20.00;71.50;;;;;;5077974;28;20027;-63
2022/05/19 03:15:34;;;;;;;0.88;0.50;;;19.90;72.20;;;;;;5078251;28;20027;-69
2022/05/19 03:18:01;;;;;;;3.20;0.47;;;20.00;74.30;;;;;;5078203;28;20016;-70
2022/05/19 03:20:28;;;;;;;1.08;0.47;;;20.00;71.30;;;;;;5078349;28;20016;-68
2022/05/19 03:22:55;;;;;;;1.17;0.80;;;19.90;73.10;;;;;;5076242;28;20024;-68
2022/05/19 03:25:22;;;;;;;4.05;0.52;;;19.80;73.10;;;;;;5076825;28;20028;-71
2022/05/19 03:27:49;;;;;;;1.35;0.43;;;19.70;73.50;;;;;;5076401;28;20469;-70
2022/05/19 03:30:17;;;;;;;1.77;0.50;;;19.70;73.90;;;;;;5077906;28;20028;-72
2022/05/19 03:32:44;;;;;;;0.80;0.50;;;19.70;74.50;;;;;;5064701;28;20396;-69
2022/05/19 03:35:13;;;;;;;2.22;0.60;;;20.00;73.40;;;;;;5084966;28;20034;-71
2022/05/19 03:37:40;;;;;;;1.73;0.65;;;20.20;71.10;;;;;;5083934;28;20087;-68
2022/05/19 03:40:10;;;;;;;1.23;0.55;;;20.20;72.60;;;;;;5067986;28;20378;-68
2022/05/19 03:42:37;;;;;;;1.02;0.55;;;20.40;71.20;;;;;;5076774;28;20024;-69
2022/05/19 03:45:06;;;;;;;4.55;0.63;;;20.30;71.30;;;;;;5083310;28;20201;-67
2022/05/19 03:47:33;;;;;;;3.10;0.40;;;20.30;72.30;;;;;;5065068;28;20519;-68
2022/05/19 03:50:00;;;;;;;0.82;0.43;;;20.30;73.40;;;;;;5062693;28;20027;-69
2022/05/19 03:52:27;;;;;;;1.63;0.40;;;20.30;74.10;;;;;;5081806;28;20099;-69
2022/05/19 03:54:54;;;;;;;1.10;0.50;;;20.50;73.70;;;;;;5078913;28;20042;-66
2022/05/19 03:57:23;;;;;;;1.33;0.52;;;20.60;72.30;;;;;;5086229;28;20027;-66
2022/05/19 03:59:50;;;;;;;1.67;0.60;;;20.60;72.10;;;;;;5059749;28;20093;-68
2022/05/19 04:02:17;;;;;;;1.10;0.70;;;20.50;69.80;;;;;;5075244;28;20021;-68
2022/05/19 04:04:44;;;;;;;1.35;0.45;;;20.30;70.60;;;;;;5081045;28;20447;-67
2022/05/19 04:07:11;;;;;;;1.65;0.47;;;20.20;70.80;;;;;;5082785;28;20439;-68
2022/05/19 04:09:38;;;;;;;3.28;0.47;;;20.00;72.30;;;;;;5077838;28;20028;-68
2022/05/19 04:12:06;;;;;;;2.53;0.45;;;19.90;71.50;;;;;;5077829;28;20030;-69
2022/05/19 04:14:33;;;;;;;1.55;0.77;;;19.90;71.40;;;;;;5079334;28;20101;-69
2022/05/19 04:17:01;;;;;;;2.03;0.60;;;20.00;71.90;;;;;;5079061;28;20546;-70
2022/05/19 04:19:28;;;;;;;0.98;0.30;;;20.10;72.80;;;;;;5076668;28;21096;-69
2022/05/19 04:21:55;;;;;;;2.10;0.63;;;20.30;72.00;;;;;;5078943;28;20028;-72
2022/05/19 04:24:22;;;;;;;2.42;0.50;;;20.20;71.80;;;;;;5078860;28;20103;-68
2022/05/19 04:26:49;;;;;;;1.58;0.65;;;20.20;70.60;;;;;;5076134;28;20024;-70
2022/05/19 04:29:16;;;;;;;6.50;1.27;;;20.10;72.40;;;;;;5060608;28;20021;-72
2022/05/19 04:31:43;;;;;;;0.55;0.43;;;19.90;73.30;;;;;;5064941;28;20023;-71
2022/05/19 04:34:10;;;;;;;2.78;0.68;;;19.90;72.70;;;;;;5078489;28;20498;-70
2022/05/19 04:36:37;;;;;;;1.75;0.40;;;20.00;70.60;;;;;;5077355;28;20036;-70
2022/05/19 04:39:04;;;;;;;4.57;0.60;;;20.10;70.90;;;;;;5073785;28;20538;-70
2022/05/19 04:41:31;;;;;;;1.17;0.50;;;20.30;70.60;;;;;;5075089;28;20276;-65
2022/05/19 04:43:58;;;;;;;2.13;0.60;;;20.30;72.30;;;;;;5080284;28;20432;-70
2022/05/19 04:46:25;;;;;;;1.27;0.40;;;20.30;70.30;;;;;;5078571;28;20032;-66
2022/05/19 04:48:53;;;;;;;1.38;0.40;;;20.20;71.30;;;;;;5073998;28;20028;-70
2022/05/19 04:51:20;;;;;;;3.35;2.13;;;19.90;69.90;;;;;;5079563;28;20256;-68
2022/05/19 04:53:47;;;;;;;3.05;0.77;;;19.70;69.00;;;;;;5080240;28;20017;-67
2022/05/19 04:56:14;;;;;;;2.08;0.40;;;19.50;68.40;;;;;;5081358;28;20020;-67
2022/05/19 04:58:41;;;;;;;3.08;0.68;;;19.20;69.00;;;;;;5081957;28;20118;-66
2022/05/19 05:01:09;;;;;;;1.33;0.50;;;19.20;72.50;;;;;;5074660;28;20036;-70
2022/05/19 05:03:36;;;;;;;2.63;0.60;;;19.30;71.50;;;;;;5074092;28;20028;-71
2022/05/19 05:06:03;;;;;;;2.92;0.70;;;19.40;72.10;;;;;;5080211;28;20363;-69
2022/05/19 05:08:30;;;;;;;1.92;0.73;;;19.70;72.20;;;;;;5082585;28;20024;-67
2022/05/19 05:10:57;;;;;;;1.60;0.65;;;20.00;71.00;;;;;;5073936;28;20020;-72
2022/05/19 05:13:24;;;;;;;1.17;0.60;;;20.20;69.40;;;;;;5078720;28;20016;-74
2022/05/19 05:15:51;;;;;;;2.83;0.73;;;20.10;69.80;;;;;;5082419;28;20032;-70
2022/05/19 05:18:18;;;;;;;2.78;0.60;;;19.80;71.80;;;;;;5064342;28;20051;-73
2022/05/19 05:20:45;;;;;;;1.77;0.70;;;19.60;71.60;;;;;;5074191;28;20119;-69
2022/05/19 05:23:12;;;;;;;2.28;0.80;;;19.70;72.40;;;;;;5079637;28;20025;-73
2022/05/19 05:25:39;;;;;;;3.50;1.00;;;19.70;73.60;;;;;;5085758;28;20070;-72
2022/05/19 05:28:06;;;;;;;2.10;1.40;;;19.70;73.90;;;;;;5079269;28;20351;-67
2022/05/19 05:30:33;;;;;;;2.17;1.05;;;19.70;74.40;;;;;;5079916;28;20578;-67
2022/05/19 05:33:09;;;;;;;3.50;1.60;;;19.70;74.20;;;;;;5079128;28;20016;-68
2022/05/19 05:35:36;;;;;;;2.92;2.20;;;19.70;72.80;;;;;;5080231;28;20395;-68
2022/05/19 05:38:03;;;;;;;2.53;1.40;;;19.60;74.30;;;;;;5079341;28;20071;-70
2022/05/19 05:40:30;;;;;;;1.92;1.27;;;19.80;75.70;;;;;;5080238;28;20430;-73
2022/05/19 05:43:05;;;;;;;1.85;0.47;;;20.20;74.70;;;;;;5079661;28;20024;-71
2022/05/19 05:45:33;;;;;;;2.45;0.88;;;20.60;72.30;;;;;;5072025;28;20032;-73
2022/05/19 05:48:00;;;;;;;1.63;0.70;;;20.60;72.30;;;;;;5078520;28;20040;-70
2022/05/19 05:50:27;;;;;;;1.25;0.57;;;20.70;70.20;;;;;;5080585;28;20016;-68
2022/05/19 05:52:55;;;;;;;1.10;0.70;;;20.30;70.40;;;;;;5084058;28;20150;-66
2022/05/19 05:55:22;;;;;;;1.98;0.50;;;19.90;73.00;;;;;;5080501;28;20084;-67
2022/05/19 05:57:49;;;;;;;1.30;0.90;;;19.30;74.00;;;;;;5080869;28;20028;-72
2022/05/19 06:00:17;;;;;;;2.72;0.88;;;19.00;75.60;;;;;;5059135;28;20028;-69
2022/05/19 06:02:44;;;;;;;2.20;0.60;;;19.00;76.80;;;;;;5079500;28;20031;-76
2022/05/19 06:05:13;;;;;;;2.83;0.80;;;18.80;76.40;;;;;;5074730;28;20029;-72
2022/05/19 06:07:40;;;;;;;1.40;0.85;;;18.40;78.10;;;;;;5073877;28;20024;-71
2022/05/19 06:10:10;;;;;;;1.90;0.52;;;18.00;80.50;;;;;;5073134;28;20078;-69
2022/05/19 06:12:38;;;;;;;2.25;0.70;;;17.70;80.80;;;;;;5075861;28;20016;-71
2022/05/19 06:15:06;;;;;;;3.03;1.25;;;17.40;82.80;;;;;;5078615;28;20035;-69
2022/05/19 06:17:34;;;;;;;2.42;1.02;;;17.40;83.90;;;;;;5079998;28;20475;-72
2022/05/19 06:20:01;;;;;;;1.75;0.80;;;17.20;85.60;;;;;;5075984;28;20028;-68
2022/05/19 06:22:28;;;;;;;4.47;0.95;;;17.00;88.30;;;;;;5077357;28;20042;-73
2022/05/19 06:24:55;;;;;;;2.75;1.38;;;16.80;90.20;;;;;;5077568;28;20433;-69
2022/05/19 06:27:22;;;;;;;2.83;1.10;;;16.70;91.00;;;;;;5068588;28;20020;-69
2022/05/19 06:29:49;;;;;;;3.80;1.50;;;16.60;91.40;;;;;;5071832;28;20035;-74
2022/05/19 06:32:16;;;;;;;3.22;1.13;;;16.40;91.20;;;;;;5077520;28;20241;-68
2022/05/19 06:34:43;;;;;;;2.65;1.10;;;16.30;90.80;;;;;;5074936;28;20085;-70
2022/05/19 06:37:10;;;;;;;2.42;1.00;;;16.20;90.40;;;;;;5074420;28;20500;-72
2022/05/19 06:39:37;;;;;;;3.75;1.20;;;16.10;90.60;;;;;;5073540;28;20029;-70
2022/05/19 06:42:04;;;;;;;3.63;1.10;;;16.00;91.00;;;;;;5059071;28;20206;-69
2022/05/19 06:44:37;;;;;;;5.38;1.85;;;15.80;91.70;;;;;;5070960;28;20016;-73
2022/05/19 06:47:15;;;;;;;3.55;1.55;;;15.70;92.10;;;;;;5059975;28;21161;-73
2022/05/19 06:49:44;;;;;;;4.47;1.40;;;15.40;92.80;;;;;;5073729;28;20012;-74
2022/05/19 06:52:16;;;;;;;3.25;1.25;;;15.30;93.30;;;;;;5077031;28;20038;-77
2022/05/19 06:54:47;;;;;;;3.60;1.20;;;15.20;94.00;;;;;;5076868;28;20024;-76
2022/05/19 06:57:15;;;;;;;2.95;1.20;;;15.10;94.10;;;;;;5068718;28;20056;-70
2022/05/19 06:59:43;;;;;;;3.53;1.15;;;14.90;94.50;;;;;;5075144;28;20513;-68
2022/05/19 07:02:11;;;;;;;4.35;1.55;;;14.80;95.40;;;;;;5072518;28;20129;-74
2022/05/19 07:04:38;;;;;;;4.38;1.42;;;14.60;95.90;;;;;;5073247;28;20048;-73
2022/05/19 07:07:06;;;;;;;5.45;1.85;;;14.40;96.60;;;;;;5074958;28;20494;-71
2022/05/19 07:09:35;;;;;;;3.45;1.30;;;14.30;97.40;;;;;;5068289;28;20032;-69
2022/05/19 07:15:24;;;;;;;6.18;1.75;;;14.10;98.40;;;;;;5073450;28;20078;-72
2022/05/19 07:17:51;;;;;;;4.25;1.30;;;14.00;98.60;;;;;;5083173;28;20813;-75
2022/05/19 07:23:08;;;;;;;2.85;1.30;;;13.80;98.90;;;;;;5077966;28;20063;-72
2022/05/19 07:25:35;;;;;;;2.53;1.05;;;13.70;98.80;;;;;;5085148;28;20024;-75
2022/05/19 07:28:02;;;;;;;2.92;1.50;;;13.60;99.90;;;;;;5077020;28;20509;-70
2022/05/19 07:30:29;;;;;;;3.35;1.02;;;13.50;99.90;;;;;;5074035;28;20395;-71
2022/05/19 07:32:56;;;;;;;6.43;2.20;;;13.50;99.30;;;;;;5075672;28;20487;-71
2022/05/19 07:35:24;;;;;;;2.88;1.08;;;13.40;99.90;;;;;;5078794;28;20024;-69
2022/05/19 07:37:52;;;;;;;4.22;1.42;;;13.40;99.90;;;;;;5075810;28;20523;-75
2022/05/19 07:40:20;;;;;;;3.83;1.55;;;13.50;99.50;;;;;;5079011;28;20494;-76
2022/05/19 07:42:47;;;;;;;2.95;1.50;;;13.40;99.50;;;;;;5072457;28;20130;-69
2022/05/19 07:45:15;;;;;;;3.22;1.20;;;13.30;99.90;;;;;;5078413;28;20107;-69
2022/05/19 07:47:43;;;;;;;3.90;1.65;;;13.30;99.90;;;;;;5076484;28;20024;-75
2022/05/19 07:50:10;;;;;;;6.78;1.77;;;13.20;99.90;;;;;;5075217;28;20090;-71
2022/05/19 07:52:39;;;;;;;3.80;1.75;;;13.00;99.90;;;;;;5076275;28;20024;-71
2022/05/19 07:55:06;;;;;;;5.50;1.60;;;12.90;99.90;;;;;;5080438;28;20045;-70
2022/05/19 07:57:34;;;;;;;9.10;1.88;;;12.80;99.90;;;;;;5055289;28;20402;-70
2022/05/19 08:00:01;;;;;;;3.28;1.67;;;12.70;99.90;;;;;;5078322;28;20028;-70
2022/05/19 08:02:28;;;;;;;5.55;1.73;;;12.70;99.90;;;;;;5074784;28;20143;-74
2022/05/19 08:04:55;;;;;;;4.55;1.45;;;12.60;99.90;;;;;;5074499;28;20434;-70
2022/05/19 08:07:22;;;;;;;3.55;1.73;;;12.50;99.90;;;;;;5077743;28;20024;-68
2022/05/19 08:15:37;;;;;;;2.55;1.40;;;12.30;99.90;;;;;;5076506;28;20038;-64
2022/05/19 08:18:12;;;;;;;5.60;1.60;;;12.30;99.90;;;;;;5077698;28;20032;-67
2022/05/19 08:20:44;;;;;;;5.07;1.52;;;12.20;99.90;;;;;;5065627;28;20030;-66
2022/05/19 08:23:17;;;;;;;3.22;1.73;;;12.10;99.90;;;;;;5077867;28;20028;-62
2022/05/19 08:25:45;;;;;;;4.45;1.80;;;12.00;99.90;;;;;;5076934;28;20016;-64
2022/05/19 08:28:14;;;;;;;6.63;2.30;;;12.00;99.90;;;;;;5076363;28;20131;-73
2022/05/19 08:30:47;;;;;;;4.07;2.20;;;12.00;99.90;;;;;;5071976;28;20538;-66
2022/05/19 08:33:15;;;;;;;5.25;2.08;;;12.00;99.90;;;;;;5078715;28;20615;-64
2022/05/19 08:35:43;;;;;;;6.00;3.50;;;11.90;99.90;;;;;;5080091;28;20025;-68
2022/05/19 08:38:10;;;;;;;8.88;5.70;;;11.90;99.90;;;;;;5077465;28;20153;-63
2022/05/19 08:40:48;;;;;;;5.22;3.63;;;11.90;99.90;;;;;;5080443;28;20051;-65
2022/05/19 08:43:19;;;;;;;6.85;3.28;;;11.70;99.90;;;;;;5078474;28;20051;-74
2022/05/19 08:45:58;;;;;;;6.65;2.53;;;11.70;99.90;;;;;;5080329;28;20035;-63
2022/05/19 08:48:27;;;;;;;5.88;2.10;;;11.70;99.90;;;;;;5078911;28;20031;-75
2022/05/19 08:51:04;;;;;;;5.03;2.50;;;11.60;99.90;;;;;;5081990;28;20541;-74
2022/05/19 08:53:42;;;;;;;5.18;2.78;;;11.60;99.90;;;;;;5079135;28;20510;-68
2022/05/19 08:56:30;;;;;;;4.85;2.05;;;11.50;99.90;;;;;;5080874;28;20474;-65
2022/05/19 08:59:16;;;;;;;4.45;2.00;;;11.50;99.90;;;;;;5073574;28;20103;-73
2022/05/19 09:02:04;;;;;;;10.13;6.88;;;11.50;99.90;;;;;;5078833;28;20020;-64
2022/05/19 09:04:52;;;;;;;5.05;2.53;;;11.50;99.90;;;;;;5082646;28;20071;-72
2022/05/19 09:10:46;;;;;;;4.97;2.53;;;11.40;99.90;;;;;;5078171;28;20081;-72
2022/05/19 09:13:35;;;;;;;6.53;2.13;;;11.40;99.90;;;;;;5078691;28;20129;-64
2022/05/19 09:16:24;;;;;;;6.55;2.22;;;11.20;99.90;;;;;;5077924;28;20095;-67
2022/05/19 09:19:16;;;;;;;3.67;1.92;;;11.20;99.90;;;;;;5072163;28;20050;-61
2022/05/19 09:21:46;;;;;;;5.78;2.28;;;11.30;99.90;;;;;;5004779;28;20078;-64
2022/05/19 09:24:13;;;;;;;2.72;2.10;;;11.30;99.90;;;;;;5003924;28;20143;-63
2022/05/19 09:26:52;;;;;;;5.35;1.95;;;11.30;99.90;;;;;;5006200;28;20045;-65
2022/05/19 09:29:43;;;;;;;5.38;1.70;;;11.10;99.90;;;;;;5011595;28;20021;-65
2022/05/19 09:32:31;;;;;;;4.63;1.85;;;11.10;99.90;;;;;;5008562;28;20033;-67
2022/05/19 09:35:13;;;;;;;3.92;1.50;;;11.20;99.90;;;;;;5006735;28;20037;-66
2022/05/19 09:37:49;;;;;;;4.72;1.83;;;11.20;99.90;;;;;;4999058;28;20124;-68
2022/05/19 09:40:28;;;;;;;3.58;1.80;;;11.10;99.90;;;;;;5005234;28;20567;-67
2022/05/19 12:06:03;;;;;;;8.68;1.80;;;9.30;99.90;;;;;;5070849;28;20070;-69
2022/05/19 12:08:41;;;;;;;5.30;2.28;;;9.40;99.90;;;;;;5065872;28;20146;-75
2022/05/19 12:11:47;;;;;;;7.68;2.00;;;9.40;99.90;;;;;;5060174;28;20012;-65
2022/05/19 12:14:40;;;;;;;5.50;1.83;;;9.40;99.90;;;;;;4982317;28;20042;-72
2022/05/19 12:17:09;;;;;;;7.07;2.10;;;9.40;99.90;;;;;;4984962;28;20267;-71
2022/05/19 12:19:38;;;;;;;12.88;2.53;;;9.30;99.90;;;;;;4985550;28;20356;-71
2022/05/19 12:22:10;;;;;;;5.88;2.15;;;9.30;99.90;;;;;;4984785;28;20529;-68
2022/05/19 12:24:53;;;;;;;4.95;2.17;;;9.40;99.90;;;;;;4985434;28;20121;-74
2022/05/19 12:27:30;;;;;;;5.50;2.35;;;9.30;99.90;;;;;;4984817;28;20030;-71
2022/05/19 12:33:31;;;;;;;3.90;2.30;;;9.30;99.90;;;;;;4981973;28;20089;-71
2022/05/19 12:36:00;;;;;;;;;;;9.40;99.90;;;;;;4929241;29;20127;-68
2022/05/19 12:38:34;;;;;;;4.97;2.22;;;9.30;99.90;;;;;;4927087;29;19997;-74
2022/05/19 12:41:21;;;;;;;5.10;1.90;;;9.30;99.90;;;;;;4942325;28;20182;-68
2022/05/19 12:43:49;;;;;;;4.90;1.95;;;9.50;99.90;;;;;;4946137;28;20035;-75
2022/05/19 12:46:34;;;;;;;4.47;2.03;;;9.70;99.90;;;;;;4946596;29;20032;-66
2022/05/19 12:49:24;;;;;;;2.85;1.70;;;9.70;99.90;;;;;;4960564;28;20048;-69
2022/05/19 12:51:58;;;;;;;4.88;2.00;;;9.80;99.90;;;;;;5023468;28;20179;-66
2022/05/19 12:54:33;;;;;;;7.00;2.13;;;9.80;99.90;;;;;;5022766;28;20041;-73
2022/05/19 12:57:11;;;;;;;9.68;2.15;;;9.90;99.90;;;;;;5023446;28;20045;-65
2022/05/19 12:59:40;;;;;;;6.07;2.10;;;9.90;99.90;;;;;;5020049;28;20048;-73
2022/05/19 13:02:31;;;;;;;2.38;1.67;;;9.90;99.90;;;;;;5022647;28;20029;-65
2022/05/19 13:05:05;;;;;;;5.30;2.25;;;9.80;99.90;;;;;;5020782;28;20037;-66
2022/05/19 13:07:42;;;;;;;2.95;1.60;;;9.70;99.90;;;;;;5004422;28;20030;-67
2022/05/19 13:10:25;;;;;;;5.35;1.92;;;9.70;99.90;;;;;;5003989;28;20099;-69
2022/05/19 13:13:04;;;;;;;3.17;2.15;;;9.70;99.90;;;;;;5034971;28;20044;-66
2022/05/19 13:15:46;;;;;;;6.30;1.85;;;9.70;99.90;;;;;;5065374;28;20029;-66
2022/05/19 13:18:18;;;;;;;3.92;1.88;;;9.60;99.90;;;;;;5065740;28;20119;-64
2022/05/19 13:20:45;;;;;;;6.38;1.83;;;9.60;99.90;;;;;;5064230;28;20548;-66
2022/05/19 13:23:29;;;;;;;3.00;1.70;;;9.60;99.90;;;;;;5065547;28;20562;-66
2022/05/19 13:26:04;;;;;;;5.13;1.50;;;9.50;99.90;;;;;;5063181;28;20028;-68
2022/05/19 13:31:26;;;;;;;2.50;1.50;;;9.50;99.90;;;;;;5065851;28;20055;-64
2022/05/19 13:34:00;;;;;;;3.17;1.80;;;9.40;99.90;;;;;;5066171;28;20399;-74
2022/05/19 13:36:30;;;;;;;4.22;1.90;;;9.30;99.90;;;;;;5063956;28;20058;-66
2022/05/19 13:39:15;;;;;;;4.30;1.83;;;9.30;99.90;;;;;;5064308;28;20467;-75
2022/05/19 13:41:59;;;;;;;5.32;1.90;;;9.40;99.90;;;;;;5063353;28;20024;-66
2022/05/19 13:44:45;;;;;;;3.17;1.50;;;9.50;99.90;;;;;;5067056;28;20020;-67
2022/05/19 13:47:15;;;;;;;3.75;2.10;;;9.50;99.90;;;;;;5069562;28;20029;-70
2022/05/19 13:49:43;;;;;;;6.32;2.03;;;9.40;99.90;;;;;;5068475;28;20494;-73
2022/05/19 13:52:13;;;;;;;5.47;2.13;;;9.30;99.90;;;;;;5064204;28;20036;-71
2022/05/19 13:54:47;;;;;;;4.53;2.20;;;9.20;99.90;;;;;;5064006;28;20060;-68
2022/05/19 13:57:25;;;;;;;5.80;1.65;;;9.10;99.90;;;;;;5068170;28;20025;-65
2022/05/19 14:00:07;;;;;;;4.38;2.00;;;9.10;99.90;;;;;;5069002;28;20031;-70
2022/05/19 14:02:37;;;;;;;5.20;2.10;;;9.00;99.90;;;;;;5068365;28;20107;-74
2022/05/19 14:05:10;;;;;;;4.20;1.77;;;9.10;99.90;;;;;;5070867;28;20035;-71
2022/05/19 14:07:40;;;;;;;;;;;9.00;99.90;;;;;;5090002;28;20012;-66
2022/05/19 14:10:10;;;;;;;3.47;1.90;;;9.00;99.90;;;;;;5086251;28;19995;-73
2022/05/19 14:12:39;;;;;;;6.65;1.70;;;8.90;99.90;;;;;;5068861;28;20441;-72
2022/05/19 14:15:11;;;;;;;3.17;2.22;;;8.80;99.90;;;;;;5091959;28;20450;-69
2022/05/19 14:17:44;;;;;;;4.03;1.77;;;8.80;99.90;;;;;;5092654;28;20016;-70
2022/05/19 14:20:22;;;;;;;6.35;1.77;;;8.80;99.90;;;;;;5092258;28;20020;-70
2022/05/19 14:22:52;;;;;;;2.92;1.77;;;8.80;99.90;;;;;;5092298;28;20502;-68
2022/05/19 14:25:22;;;;;;;7.20;1.73;;;8.70;99.90;;;;;;5091775;28;20110;-70
2022/05/19 14:27:55;;;;;;;5.55;1.45;;;8.60;99.90;;;;;;5091995;28;20018;-65
2022/05/19 14:30:29;;;;;;;5.05;1.63;;;8.70;99.90;;;;;;5091141;28;20023;-73
2022/05/19 14:33:03;;;;;;;3.88;1.55;;;8.80;99.90;;;;;;5086571;28;20020;-65
2022/05/19 14:35:58;;;;;;;6.85;1.88;;;8.90;99.90;;;;;;5078966;28;20031;-65
2022/05/19 14:38:37;;;;;;;4.95;1.63;;;9.00;99.90;;;;;;5087376;28;20367;-73
2022/05/19 14:44:02;;;;;;;4.63;1.33;;;9.10;99.90;;;;;;5091040;28;20050;-67
2022/05/19 14:46:28;;;;;;;3.20;1.98;;;9.00;99.90;;;;;;5074080;28;20051;-67
2022/05/19 14:49:05;;;;;;;3.35;1.33;;;8.90;99.90;;;;;;5091872;28;20020;-73
2022/05/19 14:51:37;;;;;;;2.05;1.40;;;8.90;99.90;;;;;;5091379;28;20443;-73
2022/05/19 14:54:07;;;;;;;3.20;1.58;;;8.80;99.90;;;;;;5087735;28;20020;-68
2022/05/19 14:56:45;;;;;;;3.15;1.40;;;8.90;99.90;;;;;;5086572;28;20020;-65
2022/05/19 14:59:25;;;;;;;5.07;1.48;;;8.90;99.90;;;;;;5085493;28;20027;-67
2022/05/19 15:01:52;;;;;;;2.80;1.70;;;9.00;99.90;;;;;;5090435;28;20080;-72
2022/05/19 15:04:19;;;;;;;4.60;1.63;;;9.00;99.90;;;;;;5091171;28;20536;-70
2022/05/19 15:06:46;;;;;;;4.20;1.77;;;9.00;99.90;;;;;;5075533;28;20059;-68
2022/05/19 15:09:13;;;;;;;3.53;1.80;;;8.90;99.90;;;;;;5072361;28;20048;-68
2022/05/19 15:11:40;;;;;;;4.65;2.17;;;8.80;99.90;;;;;;5071173;28;20449;-65
2022/05/19 15:14:07;;;;;;;4.43;1.85;;;8.80;99.90;;;;;;5072115;28;20387;-65
2022/05/19 15:16:34;;;;;;;4.18;1.60;;;8.80;99.90;;;;;;5071290;28;20028;-68
2022/05/19 15:19:02;;;;;;;2.95;1.35;;;8.80;99.90;;;;;;5071576;28;20530;-71
2022/05/19 15:21:29;;;;;;;3.95;1.60;;;8.70;99.90;;;;;;5070667;28;20028;-71
2022/05/19 15:23:56;;;;;;;1.88;1.20;;;8.70;99.90;;;;;;5072233;28;20039;-68
2022/05/19 15:26:23;;;;;;;3.00;1.52;;;8.70;99.90;;;;;;5070837;28;20016;-68
2022/05/19 15:28:53;;;;;;;3.13;1.20;;;8.60;99.90;;;;;;5071264;28;20032;-71
2022/05/19 15:31:20;;;;;;;2.13;1.30;;;8.50;99.90;;;;;;5070539;28;20414;-67
2022/05/19 15:33:47;;;;;;;1.65;1.10;;;8.50;99.90;;;;;;5071507;28;20020;-71
2022/05/19 15:36:17;;;;;;;2.67;1.13;;;8.50;99.90;;;;;;5070972;28;20023;-70
2022/05/19 15:38:44;;;;;;;2.95;1.48;;;8.30;99.90;;;;;;5071286;28;20367;-68
2022/05/19 15:41:11;;;;;;;3.15;1.50;;;8.30;99.90;;;;;;5071011;28;20025;-72
2022/05/19 15:43:39;;;;;;;2.83;1.40;;;8.20;99.90;;;;;;5070885;28;20416;-68
2022/05/19 15:46:09;;;;;;;4.85;1.55;;;8.10;99.90;;;;;;5070936;28;20052;-72
2022/05/19 15:48:37;;;;;;;3.90;1.50;;;8.00;99.90;;;;;;5072628;28;20013;-69
2022/05/19 15:51:05;;;;;;;4.68;1.85;;;7.90;99.90;;;;;;5071189;28;20027;-66
2022/05/19 15:53:32;;;;;;;6.35;2.15;;;7.90;99.90;;;;;;5057830;28;20074;-68
2022/05/19 15:55:59;;;;;;;4.22;1.90;;;7.90;99.90;;;;;;5071553;28;20048;-70
2022/05/19 15:58:32;;;;;;;3.33;1.70;;;7.80;99.90;;;;;;5070553;28;20017;-69
2022/05/19 16:01:04;;;;;;;4.05;1.60;;;7.90;99.90;;;;;;5064164;28;20364;-68